sensor_id;sensor_type;location;lat;lon;timestamp;temperature;humidity
5118;DHT22;2578;51.622;7.046;2023-06-19T00:01:12;23.90;1.00
5118;DHT22;2578;51.622;7.046;2023-06-19T00:03:38;23.80;1.00
5118;DHT22;2578;51.622;7.046;2023-06-19T00:06:05;23.70;1.00
5118;DHT22;2578;51.622;7.046;2023-06-19T00:08:30;23.60;99.90
5118;DHT22;2578;51.622;7.046;2023-06-19T00:10:56;23.40;99.90
5118;DHT22;2578;51.622;7.046;2023-06-19T00:13:22;23.20;99.90
5118;DHT22;2578;51.622;7.046;2023-06-19T00:15:50;23.10;99.90
5118;DHT22;2578;51.622;7.046;2023-06-19T00:18:16;23.10;99.90
5118;DHT22;2578;51.622;7.046;2023-06-19T00:20:43;23.10;99.90
5118;DHT22;2578;51.622;7.046;2023-06-19T00:23:11;23.00;99.90
5118;DHT22;2578;51.622;7.046;2023-06-19T00:25:40;22.80;99.90
5118;DHT22;2578;51.622;7.046;2023-06-19T00:28:06;22.80;1.00
5118;DHT22;2578;51.622;7.046;2023-06-19T00:30:37;22.60;99.90
5118;DHT22;2578;51.622;7.046;2023-06-19T00:33:07;22.60;99.90
5118;DHT22;2578;51.622;7.046;2023-06-19T00:35:33;22.50;99.90
5118;DHT22;2578;51.622;7.046;2023-06-19T00:37:59;22.40;1.00
5118;DHT22;2578;51.622;7.046;2023-06-19T00:40:30;22.40;99.90
5118;DHT22;2578;51.622;7.046;2023-06-19T00:42:57;22.30;99.90
5118;DHT22;2578;51.622;7.046;2023-06-19T00:45:23;22.20;1.00
5118;DHT22;2578;51.622;7.046;2023-06-19T00:47:54;22.10;1.00
5118;DHT22;2578;51.622;7.046;2023-06-19T00:50:21;22.10;1.00
5118;DHT22;2578;51.622;7.046;2023-06-19T00:52:47;22.10;99.90
5118;DHT22;2578;51.622;7.046;2023-06-19T00:55:15;22.10;88.40
5118;DHT22;2578;51.622;7.046;2023-06-19T00:57:41;22.10;1.00
5118;DHT22;2578;51.622;7.046;2023-06-19T01:00:08;22.10;39.90
5118;DHT22;2578;51.622;7.046;2023-06-19T01:02:34;21.80;1.00
5118;DHT22;2578;51.622;7.046;2023-06-19T01:05:00;21.80;99.90
5118;DHT22;2578;51.622;7.046;2023-06-19T01:10:08;21.40;1.00
5118;DHT22;2578;51.622;7.046;2023-06-19T01:12:38;21.70;1.00
5118;DHT22;2578;51.622;7.046;2023-06-19T01:15:08;21.70;99.90
5118;DHT22;2578;51.622;7.046;2023-06-19T01:17:35;21.70;1.00
5118;DHT22;2578;51.622;7.046;2023-06-19T01:20:02;21.60;1.00
5118;DHT22;2578;51.622;7.046;2023-06-19T01:22:33;21.70;99.90
5118;DHT22;2578;51.622;7.046;2023-06-19T01:24:59;21.70;1.00
5118;DHT22;2578;51.622;7.046;2023-06-19T01:27:25;21.80;99.90
5118;DHT22;2578;51.622;7.046;2023-06-19T01:29:59;21.70;1.00
5118;DHT22;2578;51.622;7.046;2023-06-19T01:35:19;21.70;99.90
5118;DHT22;2578;51.622;7.046;2023-06-19T01:37:48;21.60;1.00
5118;DHT22;2578;51.622;7.046;2023-06-19T01:40:14;21.60;1.00
5118;DHT22;2578;51.622;7.046;2023-06-19T01:42:41;21.60;1.00
5118;DHT22;2578;51.622;7.046;2023-06-19T01:45:09;21.50;1.00
5118;DHT22;2578;51.622;7.046;2023-06-19T01:47:35;21.50;1.00
5118;DHT22;2578;51.622;7.046;2023-06-19T01:50:00;21.30;1.00
5118;DHT22;2578;51.622;7.046;2023-06-19T01:52:26;21.20;1.00
5118;DHT22;2578;51.622;7.046;2023-06-19T01:54:52;21.00;1.00
5118;DHT22;2578;51.622;7.046;2023-06-19T01:57:18;20.90;1.00
5118;DHT22;2578;51.622;7.046;2023-06-19T01:59:44;20.80;1.00
5118;DHT22;2578;51.622;7.046;2023-06-19T02:02:09;20.70;2.20
5118;DHT22;2578;51.622;7.046;2023-06-19T02:04:35;20.60;1.00
5118;DHT22;2578;51.622;7.046;2023-06-19T02:07:01;20.60;1.00
5118;DHT22;2578;51.622;7.046;2023-06-19T02:09:27;20.50;1.00
5118;DHT22;2578;51.622;7.046;2023-06-19T02:11:56;20.40;99.90
5118;DHT22;2578;51.622;7.046;2023-06-19T02:14:22;20.40;1.00
5118;DHT22;2578;51.622;7.046;2023-06-19T02:16:47;20.30;1.00
5118;DHT22;2578;51.622;7.046;2023-06-19T02:19:13;20.30;1.00
5118;DHT22;2578;51.622;7.046;2023-06-19T02:21:39;20.20;1.00
5118;DHT22;2578;51.622;7.046;2023-06-19T02:24:05;20.10;99.90
5118;DHT22;2578;51.622;7.046;2023-06-19T02:26:31;20.10;1.00
5118;DHT22;2578;51.622;7.046;2023-06-19T02:28:56;20.10;34.20
5118;DHT22;2578;51.622;7.046;2023-06-19T02:31:23;20.00;93.60
5118;DHT22;2578;51.622;7.046;2023-06-19T02:33:50;20.00;93.90
5118;DHT22;2578;51.622;7.046;2023-06-19T02:36:16;20.10;93.90
5118;DHT22;2578;51.622;7.046;2023-06-19T02:38:51;20.20;93.60
5118;DHT22;2578;51.622;7.046;2023-06-19T02:41:16;20.20;93.40
5118;DHT22;2578;51.622;7.046;2023-06-19T02:43:44;20.20;93.70
5118;DHT22;2578;51.622;7.046;2023-06-19T02:46:11;20.30;93.60
5118;DHT22;2578;51.622;7.046;2023-06-19T02:48:37;20.20;93.10
5118;DHT22;2578;51.622;7.046;2023-06-19T02:51:03;20.40;92.20
5118;DHT22;2578;51.622;7.046;2023-06-19T02:53:28;20.50;91.40
5118;DHT22;2578;51.622;7.046;2023-06-19T02:55:54;20.60;91.10
5118;DHT22;2578;51.622;7.046;2023-06-19T02:58:20;20.70;90.50
5118;DHT22;2578;51.622;7.046;2023-06-19T03:00:46;20.80;90.10
5118;DHT22;2578;51.622;7.046;2023-06-19T03:03:11;20.90;87.20
5118;DHT22;2578;51.622;7.046;2023-06-19T03:05:37;21.10;88.20
5118;DHT22;2578;51.622;7.046;2023-06-19T03:08:03;21.20;89.00
5118;DHT22;2578;51.622;7.046;2023-06-19T03:10:29;21.30;88.60
5118;DHT22;2578;51.622;7.046;2023-06-19T03:12:55;21.30;87.90
5118;DHT22;2578;51.622;7.046;2023-06-19T03:15:20;21.40;87.00
5118;DHT22;2578;51.622;7.046;2023-06-19T03:17:46;21.40;88.00
5118;DHT22;2578;51.622;7.046;2023-06-19T03:20:18;21.40;88.10
5118;DHT22;2578;51.622;7.046;2023-06-19T03:22:44;21.30;89.00
5118;DHT22;2578;51.622;7.046;2023-06-19T03:25:09;21.30;89.30
5118;DHT22;2578;51.622;7.046;2023-06-19T03:27:35;21.30;90.00
5118;DHT22;2578;51.622;7.046;2023-06-19T03:30:02;21.40;89.60
5118;DHT22;2578;51.622;7.046;2023-06-19T03:32:34;21.50;89.10
5118;DHT22;2578;51.622;7.046;2023-06-19T03:35:02;21.50;90.00
5118;DHT22;2578;51.622;7.046;2023-06-19T03:37:27;21.50;89.70
5118;DHT22;2578;51.622;7.046;2023-06-19T03:39:53;21.50;90.00
5118;DHT22;2578;51.622;7.046;2023-06-19T03:42:19;21.50;90.00
5118;DHT22;2578;51.622;7.046;2023-06-19T03:44:44;21.40;90.30
5118;DHT22;2578;51.622;7.046;2023-06-19T03:47:10;21.40;91.40
5118;DHT22;2578;51.622;7.046;2023-06-19T03:49:35;21.30;91.50
5118;DHT22;2578;51.622;7.046;2023-06-19T03:52:01;21.30;92.10
5118;DHT22;2578;51.622;7.046;2023-06-19T03:54:27;21.30;92.60
5118;DHT22;2578;51.622;7.046;2023-06-19T03:56:53;21.30;93.20
5118;DHT22;2578;51.622;7.046;2023-06-19T03:59:20;21.40;93.10
5118;DHT22;2578;51.622;7.046;2023-06-19T04:01:46;21.40;93.40
5118;DHT22;2578;51.622;7.046;2023-06-19T04:04:14;21.40;93.90
5118;DHT22;2578;51.622;7.046;2023-06-19T04:06:40;21.40;93.60
5118;DHT22;2578;51.622;7.046;2023-06-19T04:09:06;21.40;94.20
5118;DHT22;2578;51.622;7.046;2023-06-19T04:11:31;21.20;94.90
5118;DHT22;2578;51.622;7.046;2023-06-19T04:13:57;21.20;95.30
5118;DHT22;2578;51.622;7.046;2023-06-19T04:16:25;21.10;95.80
5118;DHT22;2578;51.622;7.046;2023-06-19T04:18:51;21.10;96.30
5118;DHT22;2578;51.622;7.046;2023-06-19T04:21:17;21.00;96.10
5118;DHT22;2578;51.622;7.046;2023-06-19T04:23:42;20.90;96.40
5118;DHT22;2578;51.622;7.046;2023-06-19T04:26:08;20.90;97.40
5118;DHT22;2578;51.622;7.046;2023-06-19T04:28:33;20.80;98.00
5118;DHT22;2578;51.622;7.046;2023-06-19T04:30:59;20.80;98.10
5118;DHT22;2578;51.622;7.046;2023-06-19T04:33:28;20.80;98.00
5118;DHT22;2578;51.622;7.046;2023-06-19T04:35:57;20.90;98.80
5118;DHT22;2578;51.622;7.046;2023-06-19T04:38:23;20.80;99.70
5118;DHT22;2578;51.622;7.046;2023-06-19T04:40:53;20.70;99.60
5118;DHT22;2578;51.622;7.046;2023-06-19T04:43:19;20.60;99.90
5118;DHT22;2578;51.622;7.046;2023-06-19T04:45:45;20.60;99.90
5118;DHT22;2578;51.622;7.046;2023-06-19T04:48:10;20.50;99.90
5118;DHT22;2578;51.622;7.046;2023-06-19T04:50:36;20.50;99.90
5118;DHT22;2578;51.622;7.046;2023-06-19T04:53:02;20.60;99.90
5118;DHT22;2578;51.622;7.046;2023-06-19T04:55:28;20.60;99.90
5118;DHT22;2578;51.622;7.046;2023-06-19T04:57:57;20.60;99.90
5118;DHT22;2578;51.622;7.046;2023-06-19T05:00:22;20.50;99.90
5118;DHT22;2578;51.622;7.046;2023-06-19T05:02:49;20.60;99.90
5118;DHT22;2578;51.622;7.046;2023-06-19T05:05:16;20.60;99.90
5118;DHT22;2578;51.622;7.046;2023-06-19T05:07:41;20.60;99.90
5118;DHT22;2578;51.622;7.046;2023-06-19T05:10:08;20.60;99.90
5118;DHT22;2578;51.622;7.046;2023-06-19T05:12:34;20.50;99.90
5118;DHT22;2578;51.622;7.046;2023-06-19T05:15:00;20.60;99.90
5118;DHT22;2578;51.622;7.046;2023-06-19T05:17:26;20.60;99.90
5118;DHT22;2578;51.622;7.046;2023-06-19T05:19:52;20.70;99.90
5118;DHT22;2578;51.622;7.046;2023-06-19T05:22:17;21.00;99.90
5118;DHT22;2578;51.622;7.046;2023-06-19T05:24:44;21.20;99.90
5118;DHT22;2578;51.622;7.046;2023-06-19T05:27:10;21.40;99.90
5118;DHT22;2578;51.622;7.046;2023-06-19T05:29:36;19.60;99.90
5118;DHT22;2578;51.622;7.046;2023-06-19T05:32:01;21.90;99.90
5118;DHT22;2578;51.622;7.046;2023-06-19T05:34:27;21.90;99.90
5118;DHT22;2578;51.622;7.046;2023-06-19T05:36:53;21.80;99.90
5118;DHT22;2578;51.622;7.046;2023-06-19T05:39:18;21.70;99.90
5118;DHT22;2578;51.622;7.046;2023-06-19T05:41:44;21.20;99.90
5118;DHT22;2578;51.622;7.046;2023-06-19T05:44:11;21.20;99.90
5118;DHT22;2578;51.622;7.046;2023-06-19T05:46:41;20.80;99.90
5118;DHT22;2578;51.622;7.046;2023-06-19T05:49:07;20.70;99.90
5118;DHT22;2578;51.622;7.046;2023-06-19T05:51:32;21.00;99.90
5118;DHT22;2578;51.622;7.046;2023-06-19T05:53:58;21.10;99.90
5118;DHT22;2578;51.622;7.046;2023-06-19T05:56:31;21.20;99.90
5118;DHT22;2578;51.622;7.046;2023-06-19T05:58:58;21.10;99.90
5118;DHT22;2578;51.622;7.046;2023-06-19T06:01:25;20.80;99.90
5118;DHT22;2578;51.622;7.046;2023-06-19T06:03:53;20.80;99.90
5118;DHT22;2578;51.622;7.046;2023-06-19T06:06:19;20.80;99.90
5118;DHT22;2578;51.622;7.046;2023-06-19T06:08:45;20.70;99.90
5118;DHT22;2578;51.622;7.046;2023-06-19T06:11:10;20.70;99.90
5118;DHT22;2578;51.622;7.046;2023-06-19T06:13:37;20.70;99.90
5118;DHT22;2578;51.622;7.046;2023-06-19T06:16:05;20.70;99.90
5118;DHT22;2578;51.622;7.046;2023-06-19T06:18:30;20.60;99.90
5118;DHT22;2578;51.622;7.046;2023-06-19T06:20:56;20.60;99.90
5118;DHT22;2578;51.622;7.046;2023-06-19T06:23:24;20.60;99.90
5118;DHT22;2578;51.622;7.046;2023-06-19T06:25:50;20.60;99.90
5118;DHT22;2578;51.622;7.046;2023-06-19T06:28:15;20.40;99.90
5118;DHT22;2578;51.622;7.046;2023-06-19T06:30:41;20.40;99.90
5118;DHT22;2578;51.622;7.046;2023-06-19T06:33:10;20.30;99.90
5118;DHT22;2578;51.622;7.046;2023-06-19T06:35:35;20.20;99.90
5118;DHT22;2578;51.622;7.046;2023-06-19T06:38:02;20.20;99.90
5118;DHT22;2578;51.622;7.046;2023-06-19T06:40:27;20.20;99.90
5118;DHT22;2578;51.622;7.046;2023-06-19T06:42:53;20.20;99.90
5118;DHT22;2578;51.622;7.046;2023-06-19T06:45:19;20.20;99.90
5118;DHT22;2578;51.622;7.046;2023-06-19T06:47:45;20.10;99.90
5118;DHT22;2578;51.622;7.046;2023-06-19T06:50:10;20.10;99.90
5118;DHT22;2578;51.622;7.046;2023-06-19T06:52:37;20.20;99.90
5118;DHT22;2578;51.622;7.046;2023-06-19T06:55:03;20.20;99.90
5118;DHT22;2578;51.622;7.046;2023-06-19T06:59:55;20.40;99.90
5118;DHT22;2578;51.622;7.046;2023-06-19T07:02:21;20.80;99.90
5118;DHT22;2578;51.622;7.046;2023-06-19T07:04:46;20.80;99.90
5118;DHT22;2578;51.622;7.046;2023-06-19T07:07:12;21.00;99.90
5118;DHT22;2578;51.622;7.046;2023-06-19T07:09:37;21.20;99.90
5118;DHT22;2578;51.622;7.046;2023-06-19T07:12:03;21.40;99.90
5118;DHT22;2578;51.622;7.046;2023-06-19T07:14:30;21.60;99.90
5118;DHT22;2578;51.622;7.046;2023-06-19T07:16:56;21.80;99.90
5118;DHT22;2578;51.622;7.046;2023-06-19T07:19:21;21.90;99.90
5118;DHT22;2578;51.622;7.046;2023-06-19T07:21:49;22.30;99.90
5118;DHT22;2578;51.622;7.046;2023-06-19T07:24:15;22.20;99.90
5118;DHT22;2578;51.622;7.046;2023-06-19T07:31:33;22.10;99.90
5118;DHT22;2578;51.622;7.046;2023-06-19T07:34:00;22.10;99.90
5118;DHT22;2578;51.622;7.046;2023-06-19T07:36:25;22.30;99.90
5118;DHT22;2578;51.622;7.046;2023-06-19T07:38:52;22.30;99.90
5118;DHT22;2578;51.622;7.046;2023-06-19T07:41:17;22.10;99.90
5118;DHT22;2578;51.622;7.046;2023-06-19T07:43:43;22.00;99.90
5118;DHT22;2578;51.622;7.046;2023-06-19T07:46:09;22.00;99.90
5118;DHT22;2578;51.622;7.046;2023-06-19T07:48:35;22.40;99.90
5118;DHT22;2578;51.622;7.046;2023-06-19T07:53:26;22.20;99.90
5118;DHT22;2578;51.622;7.046;2023-06-19T07:58:18;22.00;99.90
5118;DHT22;2578;51.622;7.046;2023-06-19T08:00:45;21.80;99.90
5118;DHT22;2578;51.622;7.046;2023-06-19T08:03:10;21.60;99.90
5118;DHT22;2578;51.622;7.046;2023-06-19T08:05:36;21.70;99.90
5118;DHT22;2578;51.622;7.046;2023-06-19T08:08:01;21.90;99.90
5118;DHT22;2578;51.622;7.046;2023-06-19T08:10:27;22.20;99.90
5118;DHT22;2578;51.622;7.046;2023-06-19T08:12:53;22.20;99.90
5118;DHT22;2578;51.622;7.046;2023-06-19T08:15:18;22.30;99.90
5118;DHT22;2578;51.622;7.046;2023-06-19T08:17:44;22.50;99.90
5118;DHT22;2578;51.622;7.046;2023-06-19T08:20:10;22.60;99.90
5118;DHT22;2578;51.622;7.046;2023-06-19T08:22:37;22.70;99.90
5118;DHT22;2578;51.622;7.046;2023-06-19T08:25:04;22.70;99.90
5118;DHT22;2578;51.622;7.046;2023-06-19T08:27:30;22.60;99.90
5118;DHT22;2578;51.622;7.046;2023-06-19T08:29:55;22.80;99.90
5118;DHT22;2578;51.622;7.046;2023-06-19T08:32:21;22.40;99.90
5118;DHT22;2578;51.622;7.046;2023-06-19T08:34:47;22.40;99.90
5118;DHT22;2578;51.622;7.046;2023-06-19T08:37:12;22.50;99.90
5118;DHT22;2578;51.622;7.046;2023-06-19T08:39:38;22.70;99.90
5118;DHT22;2578;51.622;7.046;2023-06-19T08:42:06;22.80;99.90
5118;DHT22;2578;51.622;7.046;2023-06-19T08:44:33;23.00;99.90
5118;DHT22;2578;51.622;7.046;2023-06-19T08:47:00;23.30;1.00
5118;DHT22;2578;51.622;7.046;2023-06-19T08:49:29;23.40;1.00
5118;DHT22;2578;51.622;7.046;2023-06-19T08:51:55;23.60;99.90
5118;DHT22;2578;51.622;7.046;2023-06-19T08:54:21;23.70;1.00
5118;DHT22;2578;51.622;7.046;2023-06-19T08:56:47;23.90;1.00
5118;DHT22;2578;51.622;7.046;2023-06-19T08:59:14;24.30;1.00
5118;DHT22;2578;51.622;7.046;2023-06-19T09:01:46;25.00;1.00
5118;DHT22;2578;51.622;7.046;2023-06-19T09:04:18;24.80;1.00
5118;DHT22;2578;51.622;7.046;2023-06-19T09:06:51;24.30;1.00
5118;DHT22;2578;51.622;7.046;2023-06-19T09:09:19;23.90;1.00
5118;DHT22;2578;51.622;7.046;2023-06-19T09:12:09;23.60;1.00
5118;DHT22;2578;51.622;7.046;2023-06-19T09:14:43;23.60;1.00
5118;DHT22;2578;51.622;7.046;2023-06-19T09:17:17;23.60;1.00
5118;DHT22;2578;51.622;7.046;2023-06-19T09:19:50;23.30;1.00
5118;DHT22;2578;51.622;7.046;2023-06-19T09:22:18;23.70;1.00
5118;DHT22;2578;51.622;7.046;2023-06-19T09:24:50;23.80;1.00
5118;DHT22;2578;51.622;7.046;2023-06-19T09:27:17;23.90;1.00
5118;DHT22;2578;51.622;7.046;2023-06-19T09:29:45;24.20;99.90
5118;DHT22;2578;51.622;7.046;2023-06-19T09:34:48;24.80;1.00
5118;DHT22;2578;51.622;7.046;2023-06-19T09:37:28;25.50;1.00
5118;DHT22;2578;51.622;7.046;2023-06-19T09:39:58;25.40;1.00
5118;DHT22;2578;51.622;7.046;2023-06-19T09:42:27;25.10;1.00
5118;DHT22;2578;51.622;7.046;2023-06-19T09:45:00;24.90;99.90
5118;DHT22;2578;51.622;7.046;2023-06-19T09:47:37;23.90;1.00
5118;DHT22;2578;51.622;7.046;2023-06-19T09:50:04;24.10;99.90
5118;DHT22;2578;51.622;7.046;2023-06-19T09:52:31;23.90;99.90
5118;DHT22;2578;51.622;7.046;2023-06-19T09:55:01;23.80;99.90
5118;DHT22;2578;51.622;7.046;2023-06-19T09:57:28;23.60;1.00
5118;DHT22;2578;51.622;7.046;2023-06-19T09:59:55;23.60;1.00
5118;DHT22;2578;51.622;7.046;2023-06-19T10:02:22;24.00;1.00
5118;DHT22;2578;51.622;7.046;2023-06-19T10:04:55;24.30;99.90
5118;DHT22;2578;51.622;7.046;2023-06-19T10:07:47;24.60;1.00
5118;DHT22;2578;51.622;7.046;2023-06-19T10:10:25;24.50;1.00
5118;DHT22;2578;51.622;7.046;2023-06-19T10:12:53;24.30;1.00
5118;DHT22;2578;51.622;7.046;2023-06-19T10:15:27;24.10;99.90
5118;DHT22;2578;51.622;7.046;2023-06-19T10:18:05;24.20;1.00
5118;DHT22;2578;51.622;7.046;2023-06-19T10:20:36;24.40;1.00
5118;DHT22;2578;51.622;7.046;2023-06-19T10:25:32;24.80;1.00
5118;DHT22;2578;51.622;7.046;2023-06-19T10:27:59;25.20;1.00
5118;DHT22;2578;51.622;7.046;2023-06-19T10:30:25;25.40;1.00
5118;DHT22;2578;51.622;7.046;2023-06-19T10:32:51;25.00;1.00
5118;DHT22;2578;51.622;7.046;2023-06-19T10:35:17;25.00;1.00
5118;DHT22;2578;51.622;7.046;2023-06-19T10:37:46;24.90;1.00
5118;DHT22;2578;51.622;7.046;2023-06-19T10:40:12;24.90;1.00
5118;DHT22;2578;51.622;7.046;2023-06-19T10:42:41;25.50;1.00
5118;DHT22;2578;51.622;7.046;2023-06-19T10:45:08;25.80;32.10
5118;DHT22;2578;51.622;7.046;2023-06-19T10:47:35;25.80;99.90
5118;DHT22;2578;51.622;7.046;2023-06-19T10:50:01;26.20;99.90
5118;DHT22;2578;51.622;7.046;2023-06-19T10:52:31;27.40;1.00
5118;DHT22;2578;51.622;7.046;2023-06-19T10:54:57;27.50;1.00
5118;DHT22;2578;51.622;7.046;2023-06-19T10:57:30;28.00;1.00
5118;DHT22;2578;51.622;7.046;2023-06-19T10:59:56;27.70;1.00
5118;DHT22;2578;51.622;7.046;2023-06-19T11:02:22;27.30;1.00
5118;DHT22;2578;51.622;7.046;2023-06-19T11:04:48;27.10;1.00
5118;DHT22;2578;51.622;7.046;2023-06-19T11:07:14;27.10;1.00
5118;DHT22;2578;51.622;7.046;2023-06-19T11:09:39;28.20;1.00
5118;DHT22;2578;51.622;7.046;2023-06-19T11:12:06;29.00;1.00
5118;DHT22;2578;51.622;7.046;2023-06-19T11:14:34;28.80;1.00
5118;DHT22;2578;51.622;7.046;2023-06-19T11:17:05;28.20;1.00
5118;DHT22;2578;51.622;7.046;2023-06-19T11:19:32;27.20;1.00
5118;DHT22;2578;51.622;7.046;2023-06-19T11:22:03;26.60;1.00
5118;DHT22;2578;51.622;7.046;2023-06-19T11:24:29;26.30;1.00
5118;DHT22;2578;51.622;7.046;2023-06-19T11:26:56;26.10;1.00
5118;DHT22;2578;51.622;7.046;2023-06-19T11:29:39;25.70;1.00
5118;DHT22;2578;51.622;7.046;2023-06-19T11:32:06;26.20;1.00
5118;DHT22;2578;51.622;7.046;2023-06-19T11:34:37;26.20;1.00
5118;DHT22;2578;51.622;7.046;2023-06-19T11:37:18;26.40;69.60
5118;DHT22;2578;51.622;7.046;2023-06-19T11:39:50;26.40;1.00
5118;DHT22;2578;51.622;7.046;2023-06-19T11:42:18;26.40;1.00
5118;DHT22;2578;51.622;7.046;2023-06-19T11:45:03;26.40;1.00
5118;DHT22;2578;51.622;7.046;2023-06-19T11:47:32;26.60;1.00
5118;DHT22;2578;51.622;7.046;2023-06-19T11:50:05;27.20;1.00
5118;DHT22;2578;51.622;7.046;2023-06-19T11:52:34;27.40;1.00
5118;DHT22;2578;51.622;7.046;2023-06-19T11:55:00;27.60;1.00
5118;DHT22;2578;51.622;7.046;2023-06-19T11:57:28;27.90;1.00
5118;DHT22;2578;51.622;7.046;2023-06-19T11:59:54;28.10;1.00
5118;DHT22;2578;51.622;7.046;2023-06-19T12:02:28;27.90;1.00
5118;DHT22;2578;51.622;7.046;2023-06-19T12:04:57;27.90;1.00
5118;DHT22;2578;51.622;7.046;2023-06-19T12:07:22;27.70;1.00
5118;DHT22;2578;51.622;7.046;2023-06-19T12:09:48;27.60;1.00
5118;DHT22;2578;51.622;7.046;2023-06-19T12:12:14;27.80;1.00
5118;DHT22;2578;51.622;7.046;2023-06-19T12:14:39;27.80;1.00
5118;DHT22;2578;51.622;7.046;2023-06-19T12:17:05;28.10;1.00
5118;DHT22;2578;51.622;7.046;2023-06-19T12:19:31;28.20;1.00
5118;DHT22;2578;51.622;7.046;2023-06-19T12:21:59;27.50;1.00
5118;DHT22;2578;51.622;7.046;2023-06-19T12:24:28;27.60;1.00
5118;DHT22;2578;51.622;7.046;2023-06-19T12:26:53;28.00;1.00
5118;DHT22;2578;51.622;7.046;2023-06-19T12:29:19;27.90;1.00
5118;DHT22;2578;51.622;7.046;2023-06-19T12:31:46;28.20;1.00
5118;DHT22;2578;51.622;7.046;2023-06-19T12:34:11;28.30;1.00
5118;DHT22;2578;51.622;7.046;2023-06-19T12:36:37;28.40;1.00
5118;DHT22;2578;51.622;7.046;2023-06-19T12:39:05;27.90;1.00
5118;DHT22;2578;51.622;7.046;2023-06-19T12:41:40;28.10;1.00
5118;DHT22;2578;51.622;7.046;2023-06-19T12:44:05;28.20;1.00
5118;DHT22;2578;51.622;7.046;2023-06-19T12:46:32;28.50;1.00
5118;DHT22;2578;51.622;7.046;2023-06-19T12:48:57;28.30;1.00
5118;DHT22;2578;51.622;7.046;2023-06-19T12:51:23;27.80;1.00
5118;DHT22;2578;51.622;7.046;2023-06-19T12:53:49;27.80;1.00
5118;DHT22;2578;51.622;7.046;2023-06-19T12:56:14;27.40;1.00
5118;DHT22;2578;51.622;7.046;2023-06-19T12:58:40;27.50;1.00
5118;DHT22;2578;51.622;7.046;2023-06-19T13:01:09;27.70;1.00
5118;DHT22;2578;51.622;7.046;2023-06-19T13:03:37;27.20;1.00
5118;DHT22;2578;51.622;7.046;2023-06-19T13:06:03;26.90;1.00
5118;DHT22;2578;51.622;7.046;2023-06-19T13:08:29;27.10;1.00
5118;DHT22;2578;51.622;7.046;2023-06-19T13:10:54;27.30;63.50
5118;DHT22;2578;51.622;7.046;2023-06-19T13:13:20;27.30;1.00
5118;DHT22;2578;51.622;7.046;2023-06-19T13:15:45;28.10;1.00
5118;DHT22;2578;51.622;7.046;2023-06-19T13:18:11;28.10;1.00
5118;DHT22;2578;51.622;7.046;2023-06-19T13:20:40;28.30;1.00
5118;DHT22;2578;51.622;7.046;2023-06-19T13:23:05;28.10;1.00
5118;DHT22;2578;51.622;7.046;2023-06-19T13:25:31;28.10;1.00
5118;DHT22;2578;51.622;7.046;2023-06-19T13:27:58;29.00;1.00
5118;DHT22;2578;51.622;7.046;2023-06-19T13:30:26;29.10;1.00
5118;DHT22;2578;51.622;7.046;2023-06-19T13:32:55;29.50;1.00
5118;DHT22;2578;51.622;7.046;2023-06-19T13:35:21;29.20;1.00
5118;DHT22;2578;51.622;7.046;2023-06-19T13:37:47;28.50;1.00
5118;DHT22;2578;51.622;7.046;2023-06-19T13:40:16;28.70;1.00
5118;DHT22;2578;51.622;7.046;2023-06-19T13:42:41;28.60;1.00
5118;DHT22;2578;51.622;7.046;2023-06-19T13:45:07;28.50;1.00
5118;DHT22;2578;51.622;7.046;2023-06-19T13:47:36;28.70;1.00
5118;DHT22;2578;51.622;7.046;2023-06-19T13:50:06;29.30;1.00
5118;DHT22;2578;51.622;7.046;2023-06-19T13:52:34;29.10;1.00
5118;DHT22;2578;51.622;7.046;2023-06-19T13:55:01;28.90;1.00
5118;DHT22;2578;51.622;7.046;2023-06-19T13:57:27;28.70;1.00
5118;DHT22;2578;51.622;7.046;2023-06-19T13:59:53;29.10;1.00
5118;DHT22;2578;51.622;7.046;2023-06-19T14:02:19;29.30;1.00
5118;DHT22;2578;51.622;7.046;2023-06-19T14:04:44;29.40;1.00
5118;DHT22;2578;51.622;7.046;2023-06-19T14:07:10;29.50;1.00
5118;DHT22;2578;51.622;7.046;2023-06-19T14:09:44;29.70;1.00
5118;DHT22;2578;51.622;7.046;2023-06-19T14:12:10;31.00;1.00
5118;DHT22;2578;51.622;7.046;2023-06-19T14:14:38;31.00;1.00
5118;DHT22;2578;51.622;7.046;2023-06-19T14:17:07;31.10;1.00
5118;DHT22;2578;51.622;7.046;2023-06-19T14:19:32;30.70;1.00
5118;DHT22;2578;51.622;7.046;2023-06-19T14:21:58;29.30;99.90
5118;DHT22;2578;51.622;7.046;2023-06-19T14:24:26;29.30;1.00
5118;DHT22;2578;51.622;7.046;2023-06-19T14:26:52;29.40;1.00
5118;DHT22;2578;51.622;7.046;2023-06-19T14:29:18;29.30;1.00
5118;DHT22;2578;51.622;7.046;2023-06-19T14:31:44;29.40;99.90
5118;DHT22;2578;51.622;7.046;2023-06-19T14:34:10;29.50;1.00
5118;DHT22;2578;51.622;7.046;2023-06-19T14:36:37;29.40;99.90
5118;DHT22;2578;51.622;7.046;2023-06-19T14:39:03;29.40;1.00
5118;DHT22;2578;51.622;7.046;2023-06-19T14:41:30;29.30;99.90
5118;DHT22;2578;51.622;7.046;2023-06-19T14:43:57;29.30;1.00
5118;DHT22;2578;51.622;7.046;2023-06-19T14:46:23;29.20;99.90
5118;DHT22;2578;51.622;7.046;2023-06-19T14:48:48;28.80;99.90
5118;DHT22;2578;51.622;7.046;2023-06-19T14:51:14;29.10;99.90
5118;DHT22;2578;51.622;7.046;2023-06-19T14:53:39;29.30;99.90
5118;DHT22;2578;51.622;7.046;2023-06-19T14:56:05;29.00;1.00
5118;DHT22;2578;51.622;7.046;2023-06-19T14:58:31;28.90;99.90
5118;DHT22;2578;51.622;7.046;2023-06-19T15:00:56;29.80;99.90
5118;DHT22;2578;51.622;7.046;2023-06-19T15:03:23;29.90;99.90
5118;DHT22;2578;51.622;7.046;2023-06-19T15:05:49;29.60;99.90
5118;DHT22;2578;51.622;7.046;2023-06-19T15:08:20;29.50;99.90
5118;DHT22;2578;51.622;7.046;2023-06-19T15:10:49;29.00;99.90
5118;DHT22;2578;51.622;7.046;2023-06-19T15:13:20;29.00;99.90
5118;DHT22;2578;51.622;7.046;2023-06-19T15:15:46;28.90;99.90
5118;DHT22;2578;51.622;7.046;2023-06-19T15:18:13;28.80;99.90
5118;DHT22;2578;51.622;7.046;2023-06-19T15:20:42;28.90;99.90
5118;DHT22;2578;51.622;7.046;2023-06-19T15:23:08;29.10;99.90
5118;DHT22;2578;51.622;7.046;2023-06-19T15:25:34;28.90;99.90
5118;DHT22;2578;51.622;7.046;2023-06-19T15:28:00;28.90;99.90
5118;DHT22;2578;51.622;7.046;2023-06-19T15:30:26;29.00;99.90
5118;DHT22;2578;51.622;7.046;2023-06-19T15:32:51;28.90;99.90
5118;DHT22;2578;51.622;7.046;2023-06-19T15:35:17;29.00;99.90
5118;DHT22;2578;51.622;7.046;2023-06-19T15:37:42;28.70;99.90
5118;DHT22;2578;51.622;7.046;2023-06-19T15:40:08;28.70;99.90
5118;DHT22;2578;51.622;7.046;2023-06-19T15:42:34;28.60;99.90
5118;DHT22;2578;51.622;7.046;2023-06-19T15:45:01;28.50;99.90
5118;DHT22;2578;51.622;7.046;2023-06-19T15:47:27;28.80;99.90
5118;DHT22;2578;51.622;7.046;2023-06-19T15:49:53;29.10;99.90
5118;DHT22;2578;51.622;7.046;2023-06-19T15:52:18;29.30;99.90
5118;DHT22;2578;51.622;7.046;2023-06-19T15:54:44;29.30;99.90
5118;DHT22;2578;51.622;7.046;2023-06-19T15:57:11;28.90;99.90
5118;DHT22;2578;51.622;7.046;2023-06-19T15:59:37;28.50;99.90
5118;DHT22;2578;51.622;7.046;2023-06-19T16:02:03;28.70;99.90
5118;DHT22;2578;51.622;7.046;2023-06-19T16:04:29;28.80;99.90
5118;DHT22;2578;51.622;7.046;2023-06-19T16:06:55;28.90;99.90
5118;DHT22;2578;51.622;7.046;2023-06-19T16:09:20;28.70;99.90
5118;DHT22;2578;51.622;7.046;2023-06-19T16:11:46;28.70;99.90
5118;DHT22;2578;51.622;7.046;2023-06-19T16:14:13;28.70;99.90
5118;DHT22;2578;51.622;7.046;2023-06-19T16:16:40;28.80;99.90
5118;DHT22;2578;51.622;7.046;2023-06-19T16:19:06;28.90;99.90
5118;DHT22;2578;51.622;7.046;2023-06-19T16:21:32;29.00;99.90
5118;DHT22;2578;51.622;7.046;2023-06-19T16:23:58;29.00;99.90
5118;DHT22;2578;51.622;7.046;2023-06-19T16:26:24;29.30;1.00
5118;DHT22;2578;51.622;7.046;2023-06-19T16:28:49;29.30;99.90